createdAt,value
2022-09-24T00:01:36.723Z,12.90
2022-09-24T00:04:07.304Z,9.60
2022-09-24T00:06:37.047Z,11.77
2022-09-24T00:09:04.592Z,12.38
2022-09-24T00:11:32.172Z,10.73
2022-09-24T00:13:59.709Z,9.05
2022-09-24T00:16:29.116Z,10.80
2022-09-24T00:18:56.040Z,14.07
2022-09-24T00:21:26.192Z,9.65
2022-09-24T00:23:55.489Z,10.57
2022-09-24T00:26:41.583Z,8.43
2022-09-24T00:29:10.063Z,11.95
2022-09-24T00:31:37.159Z,11.00
2022-09-24T00:34:04.595Z,10.18
2022-09-24T00:36:31.825Z,11.10
2022-09-24T00:39:00.197Z,8.38
2022-09-24T00:41:31.368Z,12.18
2022-09-24T00:43:59.153Z,8.77
2022-09-24T00:46:40.358Z,11.02
2022-09-24T00:49:20.319Z,8.05
2022-09-24T00:51:49.835Z,11.13
2022-09-24T00:54:22.638Z,10.77
2022-09-24T00:56:51.127Z,9.52
2022-09-24T00:59:21.026Z,10.57
2022-09-24T01:01:49.453Z,7.93
2022-09-24T01:04:21.262Z,7.68
2022-09-24T01:06:51.978Z,9.63
2022-09-24T01:09:24.186Z,7.57
2022-09-24T01:12:29.014Z,10.77
2022-09-24T01:15:21.344Z,11.15
2022-09-24T01:18:09.286Z,6.93
2022-09-24T01:20:56.081Z,8.98
2022-09-24T01:23:37.946Z,7.90
2022-09-24T01:26:19.944Z,7.00
2022-09-24T01:29:44.236Z,9.38
2022-09-24T01:35:07.880Z,9.45
2022-09-24T01:37:37.728Z,7.43
2022-09-24T01:40:07.527Z,8.02
2022-09-24T01:42:35.080Z,10.20
2022-09-24T01:45:02.547Z,9.02
2022-09-24T01:47:41.394Z,12.40
2022-09-24T01:50:11.294Z,6.35
2022-09-24T01:53:02.737Z,7.25
2022-09-24T01:55:38.417Z,9.85
2022-09-24T01:58:14.496Z,7.68
2022-09-24T02:00:45.277Z,7.88
2022-09-24T02:03:17.409Z,7.50
2022-09-24T02:05:55.017Z,6.63
2022-09-24T02:08:26.370Z,8.05
2022-09-24T02:11:14.763Z,10.82
2022-09-24T02:14:07.847Z,6.22
2022-09-24T02:16:39.039Z,9.90
2022-09-24T02:19:10.513Z,7.13
2022-09-24T02:21:40.450Z,8.40
2022-09-24T02:24:24.144Z,6.13
2022-09-24T02:26:51.324Z,6.22
2022-09-24T02:29:20.838Z,5.53
2022-09-24T02:31:52.829Z,9.32
2022-09-24T02:34:25.570Z,7.95
2022-09-24T02:37:03.528Z,10.20
2022-09-24T02:39:30.265Z,6.20
2022-09-24T02:41:58.289Z,12.48
2022-09-24T02:44:25.058Z,16.00
2022-09-24T02:46:51.824Z,10.43
2022-09-24T02:49:18.887Z,8.40
2022-09-24T02:51:45.717Z,9.52
2022-09-24T02:54:12.826Z,9.65
2022-09-24T02:56:39.952Z,9.40
2022-09-24T02:59:07.742Z,11.13
2022-09-24T03:01:35.226Z,8.02
2022-09-24T03:04:02.649Z,8.60
2022-09-24T03:06:30.442Z,14.30
2022-09-24T03:08:57.401Z,8.07
2022-09-24T03:11:25.085Z,9.30
2022-09-24T03:13:52.027Z,7.03
2022-09-24T03:16:20.476Z,9.27
2022-09-24T03:18:47.839Z,9.43
2022-09-24T03:21:17.116Z,8.73
2022-09-24T03:23:44.424Z,9.73
2022-09-24T03:26:11.368Z,8.27
2022-09-24T03:28:38.537Z,7.18
2022-09-24T03:31:06.172Z,6.32
2022-09-24T03:33:42.130Z,6.65
2022-09-24T03:36:12.099Z,7.35
2022-09-24T03:38:40.759Z,10.20
2022-09-24T03:41:08.626Z,10.10
2022-09-24T03:43:36.055Z,10.75
2022-09-24T03:46:04.224Z,8.13
2022-09-24T03:48:31.001Z,9.50
2022-09-24T03:51:02.677Z,12.93
2022-09-24T03:53:29.412Z,12.00
2022-09-24T03:55:57.097Z,8.45
2022-09-24T03:58:25.130Z,7.55
2022-09-24T04:00:55.508Z,9.65
2022-09-24T04:03:22.790Z,7.90
2022-09-24T04:05:51.337Z,9.50
2022-09-24T04:08:22.005Z,8.95
2022-09-24T04:10:49.951Z,10.23
2022-09-24T04:13:18.241Z,11.98
2022-09-24T04:15:45.450Z,12.45
2022-09-24T04:18:12.528Z,11.73
2022-09-24T04:20:39.806Z,7.45
2022-09-24T04:23:06.740Z,10.13
2022-09-24T04:25:34.224Z,11.60
2022-09-24T04:28:03.999Z,8.85
2022-09-24T04:30:32.743Z,7.07
2022-09-24T04:33:00.794Z,8.00
2022-09-24T04:35:29.957Z,8.15
2022-09-24T04:37:57.806Z,7.72
2022-09-24T04:40:24.806Z,7.28
2022-09-24T04:42:52.539Z,12.48
2022-09-24T04:45:20.333Z,10.05
2022-09-24T04:47:52.665Z,12.20
2022-09-24T04:50:20.486Z,6.72
2022-09-24T04:52:47.425Z,10.38
2022-09-24T04:55:14.480Z,7.88
2022-09-24T04:57:41.391Z,7.13
2022-09-24T05:00:14.690Z,12.18
2022-09-24T05:02:42.521Z,9.65
2022-09-24T05:05:09.712Z,7.75
2022-09-24T05:07:37.182Z,9.45
2022-09-24T05:10:05.016Z,11.23
2022-09-24T05:12:31.807Z,6.05
2022-09-24T05:14:58.601Z,7.68
2022-09-24T05:17:25.306Z,13.50
2022-09-24T05:19:52.300Z,9.07
2022-09-24T05:22:19.378Z,14.73
2022-09-24T05:24:46.119Z,13.27
2022-09-24T05:27:12.883Z,7.45
2022-09-24T05:29:41.381Z,12.70
2022-09-24T05:32:10.634Z,7.45
2022-09-24T05:34:37.487Z,8.52
2022-09-24T05:37:04.905Z,10.57
2022-09-24T05:39:34.087Z,10.25
2022-09-24T05:42:03.727Z,9.77
2022-09-24T05:44:33.583Z,12.60
2022-09-24T05:47:00.389Z,8.50
2022-09-24T05:49:27.204Z,9.38
2022-09-24T05:51:53.921Z,10.32
2022-09-24T05:54:20.720Z,13.48
2022-09-24T05:56:47.525Z,9.45
2022-09-24T05:59:14.348Z,8.30
2022-09-24T06:01:41.205Z,8.52
2022-09-24T06:04:09.322Z,6.57
2022-09-24T06:06:36.395Z,8.77
2022-09-24T06:09:04.117Z,11.02
2022-09-24T06:11:40.329Z,8.45
2022-09-24T06:14:09.017Z,9.43
2022-09-24T06:16:36.082Z,5.65
2022-09-24T06:19:02.957Z,11.57
2022-09-24T06:21:29.883Z,10.77
2022-09-24T06:23:56.655Z,8.15
2022-09-24T06:26:23.637Z,7.55
2022-09-24T06:28:50.391Z,10.82
2022-09-24T06:31:17.247Z,10.20
2022-09-24T06:33:44.017Z,10.77
2022-09-24T06:36:10.960Z,10.68
2022-09-24T06:38:40.391Z,8.50
2022-09-24T06:41:07.660Z,10.05
2022-09-24T06:43:35.129Z,9.43
2022-09-24T06:46:03.320Z,11.57
2022-09-24T06:48:31.232Z,8.80
2022-09-24T06:50:58.485Z,12.20
2022-09-24T06:53:25.860Z,12.52
2022-09-24T06:55:55.992Z,9.75
2022-09-24T06:58:23.716Z,13.30
2022-09-24T07:00:53.094Z,12.95
2022-09-24T07:03:20.704Z,14.10
2022-09-24T07:05:47.741Z,12.10
2022-09-24T07:08:14.525Z,16.85
2022-09-24T07:10:45.505Z,10.88
2022-09-24T07:13:13.690Z,14.55
2022-09-24T07:15:41.374Z,11.27
2022-09-24T07:18:08.938Z,9.55
2022-09-24T07:20:37.003Z,12.15
2022-09-24T07:23:05.391Z,11.30
2022-09-24T07:25:33.181Z,9.57
2022-09-24T07:28:11.495Z,7.18
2022-09-24T07:30:39.717Z,11.77
2022-09-24T07:33:09.723Z,10.45
2022-09-24T07:35:40.307Z,9.82
2022-09-24T07:38:12.114Z,10.73
2022-09-24T07:40:39.190Z,9.82
2022-09-24T07:43:13.655Z,11.88
2022-09-24T07:45:41.848Z,7.90
2022-09-24T07:48:10.803Z,11.25
2022-09-24T07:50:42.798Z,9.27
2022-09-24T07:53:13.271Z,8.90
2022-09-24T07:55:40.614Z,10.38
2022-09-24T07:58:16.459Z,11.15
2022-09-24T08:00:43.207Z,13.95
2022-09-24T08:03:10.800Z,7.80
2022-09-24T08:05:45.250Z,8.85
2022-09-24T08:08:12.373Z,14.05
2022-09-24T08:10:39.129Z,10.57
2022-09-24T08:13:05.875Z,9.75
2022-09-24T08:15:32.655Z,9.38
2022-09-24T08:18:03.485Z,9.65
2022-09-24T08:20:31.654Z,12.63
2022-09-24T08:23:02.349Z,11.60
2022-09-24T08:25:29.230Z,7.85
2022-09-24T08:27:55.933Z,8.30
2022-09-24T08:30:22.693Z,9.15
2022-09-24T08:32:49.435Z,8.98
2022-09-24T08:35:16.316Z,7.70
2022-09-24T08:37:43.052Z,11.13
2022-09-24T08:40:19.082Z,10.95
2022-09-24T08:42:54.594Z,8.50
2022-09-24T08:45:39.976Z,7.55
2022-09-24T08:48:17.236Z,9.73
2022-09-24T08:50:58.015Z,11.35
2022-09-24T08:53:51.105Z,10.90
2022-09-24T08:56:23.575Z,9.80
2022-09-24T08:59:16.396Z,6.95
2022-09-24T09:01:49.681Z,9.82
2022-09-24T09:04:35.293Z,11.10
2022-09-24T09:07:10.924Z,8.00
2022-09-24T09:09:54.397Z,10.30
2022-09-24T09:12:31.631Z,8.82
2022-09-24T09:15:26.405Z,11.15
2022-09-24T09:17:59.988Z,14.45
2022-09-24T09:20:31.794Z,10.55
2022-09-24T09:23:10.865Z,15.15
2022-09-24T09:25:43.362Z,12.63
2022-09-24T09:28:15.486Z,9.82
2022-09-24T09:31:22.516Z,13.40
2022-09-24T09:34:14.043Z,14.45
2022-09-24T09:37:25.713Z,14.57
2022-09-24T09:40:27.710Z,12.25
2022-09-24T09:43:09.123Z,13.30
2022-09-24T09:46:18.499Z,21.98
2022-09-24T09:48:52.256Z,16.08
2022-09-24T09:51:22.674Z,17.33
2022-09-24T09:54:01.251Z,16.67
2022-09-24T09:56:43.705Z,16.38
2022-09-24T09:59:13.434Z,20.10
2022-09-24T10:01:42.538Z,19.40
2022-09-24T10:04:24.376Z,15.73
2022-09-24T10:06:51.128Z,13.52
2022-09-24T10:09:20.955Z,16.13
2022-09-24T10:11:48.455Z,15.75
2022-09-24T10:14:19.200Z,19.02
2022-09-24T10:16:52.185Z,16.27
2022-09-24T10:21:47.272Z,15.68
2022-09-24T10:24:23.327Z,19.27
2022-09-24T10:26:50.549Z,17.83
2022-09-24T10:29:45.147Z,21.33
2022-09-24T10:32:20.641Z,17.15
2022-09-24T10:35:01.413Z,20.65
2022-09-24T10:37:29.302Z,17.23
2022-09-24T10:40:38.282Z,14.20
2022-09-24T10:43:06.834Z,15.95
2022-09-24T10:45:49.642Z,17.42
2022-09-24T10:48:38.764Z,18.10
2022-09-24T10:51:35.029Z,20.45
2022-09-24T10:54:01.790Z,15.05
2022-09-24T10:56:31.261Z,16.73
2022-09-24T10:59:22.712Z,21.08
2022-09-24T11:02:14.182Z,17.60
2022-09-24T11:04:51.732Z,17.88
2022-09-24T11:07:39.865Z,22.52
2022-09-24T11:10:10.327Z,20.52
2022-09-24T11:12:58.186Z,19.65
2022-09-24T11:15:27.758Z,17.52
2022-09-24T11:18:09.973Z,19.02
2022-09-24T11:20:39.441Z,16.48
2022-09-24T11:23:24.624Z,17.50
2022-09-24T11:26:29.269Z,16.48
2022-09-24T11:29:11.022Z,15.90
2022-09-24T11:31:59.728Z,17.98
2022-09-24T11:34:51.524Z,20.90
2022-09-24T11:37:32.429Z,21.63
2022-09-24T11:40:19.452Z,21.95
2022-09-24T11:43:20.033Z,21.05
2022-09-24T11:46:05.661Z,21.02
2022-09-24T11:48:57.022Z,25.15
2022-09-24T11:51:34.136Z,27.23
2022-09-24T11:54:10.529Z,29.20
2022-09-24T11:56:46.209Z,26.33
2022-09-24T11:59:24.941Z,33.10
2022-09-24T12:01:58.570Z,31.33
2022-09-24T12:04:40.425Z,30.88
2022-09-24T12:07:38.730Z,28.40
2022-09-24T12:10:29.866Z,29.73
2022-09-24T12:13:25.082Z,30.95
2022-09-24T12:16:00.943Z,36.92
2022-09-24T12:18:33.521Z,27.60
2022-09-24T12:21:08.721Z,30.85
2022-09-24T12:23:40.970Z,32.28
2022-09-24T12:26:08.961Z,35.78
2022-09-24T12:29:49.236Z,28.52
2022-09-24T12:32:51.598Z,33.55
2022-09-24T12:35:42.779Z,33.85
2022-09-24T12:38:32.637Z,26.92
2022-09-24T12:41:20.610Z,32.47
2022-09-24T12:43:59.545Z,24.90
2022-09-24T12:46:31.834Z,26.77
2022-09-24T12:48:59.596Z,28.65
2022-09-24T12:51:35.611Z,36.75
2022-09-24T12:54:09.330Z,28.75
2022-09-24T12:56:36.304Z,32.00
2022-09-24T12:59:05.688Z,30.65
2022-09-24T13:01:34.466Z,27.63
2022-09-24T13:04:15.129Z,29.02
2022-09-24T13:06:45.033Z,27.90
2022-09-24T13:09:26.245Z,22.83
2022-09-24T13:12:17.707Z,29.25
2022-09-24T13:15:02.830Z,27.08
2022-09-24T13:17:34.557Z,31.13
2022-09-24T13:20:17.053Z,29.83
2022-09-24T13:22:43.843Z,30.58
2022-09-24T13:25:10.689Z,34.05
2022-09-24T13:27:38.008Z,37.22
2022-09-24T13:30:40.414Z,31.92
2022-09-24T13:33:19.529Z,31.65
2022-09-24T13:36:06.590Z,35.00
2022-09-24T13:38:44.839Z,32.38
2022-09-24T13:41:20.755Z,34.85
2022-09-24T13:43:54.686Z,34.67
2022-09-24T13:46:22.386Z,32.05
2022-09-24T13:48:53.646Z,36.67
2022-09-24T13:51:27.645Z,29.90
2022-09-24T13:54:08.089Z,30.67
2022-09-24T13:56:35.027Z,31.75
2022-09-24T13:59:09.943Z,30.17
2022-09-24T14:01:42.386Z,30.40
2022-09-24T14:04:23.403Z,34.90
2022-09-24T14:06:56.165Z,33.63
2022-09-24T14:09:32.982Z,34.15
2022-09-24T14:12:03.146Z,34.80
2022-09-24T14:14:31.121Z,31.50
2022-09-24T14:17:18.123Z,33.00
2022-09-24T14:19:44.977Z,34.70
2022-09-24T14:22:42.908Z,39.95
2022-09-24T14:25:29.657Z,35.20
2022-09-24T14:27:59.264Z,37.85
2022-09-24T14:30:29.055Z,38.88
2022-09-24T14:32:59.860Z,38.58
2022-09-24T14:35:36.686Z,40.58
2022-09-24T14:38:08.900Z,41.05
2022-09-24T14:41:00.614Z,39.15
2022-09-24T14:43:31.525Z,43.42
2022-09-24T14:46:09.492Z,43.25
2022-09-24T14:48:36.403Z,41.80
2022-09-24T14:51:03.433Z,44.15
2022-09-24T14:53:36.127Z,45.55
2022-09-24T14:56:27.443Z,42.70
2022-09-24T14:58:54.279Z,41.90
2022-09-24T15:01:24.080Z,50.88
2022-09-24T15:03:54.396Z,48.75
2022-09-24T15:06:36.262Z,48.95
2022-09-24T15:09:23.435Z,52.60
2022-09-24T15:11:50.433Z,46.33
2022-09-24T15:14:21.260Z,48.83
2022-09-24T15:16:48.166Z,45.17
2022-09-24T15:19:21.778Z,42.92
2022-09-24T15:21:51.296Z,48.85
2022-09-24T15:24:19.883Z,51.72
2022-09-24T15:26:49.335Z,49.42
2022-09-24T15:29:23.924Z,48.00
2022-09-24T15:31:52.221Z,50.05
2022-09-24T15:34:20.516Z,44.20
2022-09-24T15:36:59.437Z,54.15
2022-09-24T15:39:31.911Z,50.30
2022-09-24T15:41:58.622Z,47.28
2022-09-24T15:44:32.951Z,47.95
2022-09-24T15:47:00.602Z,47.00
2022-09-24T15:49:27.415Z,58.33
2022-09-24T15:52:01.677Z,56.08
2022-09-24T15:54:28.998Z,55.55
2022-09-24T15:56:55.813Z,55.97
2022-09-24T15:59:23.518Z,61.92
2022-09-24T16:01:53.424Z,58.33
2022-09-24T16:04:20.449Z,50.50
2022-09-24T16:06:47.359Z,41.42
2022-09-24T16:09:14.165Z,30.67
2022-09-24T16:11:41.082Z,32.40
2022-09-24T16:14:09.103Z,31.25
2022-09-24T16:16:41.309Z,192.82
2022-09-24T16:19:08.624Z,48.50
2022-09-24T16:21:35.714Z,85.13
2022-09-24T16:24:03.287Z,50.75
2022-09-24T16:26:30.225Z,42.35
2022-09-24T16:28:57.350Z,27.52
2022-09-24T16:31:24.288Z,30.42
2022-09-24T16:33:51.100Z,29.17
2022-09-24T16:36:18.862Z,32.60
2022-09-24T16:38:45.733Z,28.98
2022-09-24T16:41:12.567Z,29.88
2022-09-24T16:43:39.428Z,31.55
2022-09-24T16:46:10.275Z,33.45
2022-09-24T16:48:37.759Z,29.52
2022-09-24T16:51:10.680Z,32.83
2022-09-24T16:53:38.432Z,31.63
2022-09-24T16:56:08.417Z,34.83
2022-09-24T16:58:35.664Z,33.63
2022-09-24T17:01:07.142Z,30.17
2022-09-24T17:03:34.406Z,37.40
2022-09-24T17:06:01.809Z,35.22
2022-09-24T17:09:06.055Z,37.55
2022-09-24T17:11:33.504Z,48.80
2022-09-24T17:14:00.825Z,56.40
2022-09-24T17:16:28.024Z,58.10
2022-09-24T17:18:55.751Z,66.68
2022-09-24T17:21:23.335Z,67.82
2022-09-24T17:23:50.896Z,61.90
2022-09-24T17:26:21.333Z,47.45
2022-09-24T17:28:51.518Z,39.13
2022-09-24T17:31:22.868Z,35.08
2022-09-24T17:34:01.798Z,32.63
2022-09-24T17:36:31.021Z,30.40
2022-09-24T17:38:59.360Z,30.13
2022-09-24T17:41:27.291Z,23.48
2022-09-24T17:43:58.454Z,22.17
2022-09-24T17:46:30.252Z,24.67
2022-09-24T17:48:59.789Z,23.70
2022-09-24T17:51:32.642Z,22.88
2022-09-24T17:54:01.377Z,22.98
2022-09-24T17:56:30.143Z,24.45
2022-09-24T17:58:57.186Z,22.98
2022-09-24T18:01:27.912Z,23.85
2022-09-24T18:03:56.797Z,21.75
2022-09-24T18:06:28.101Z,25.30
2022-09-24T18:08:57.927Z,21.17
2022-09-24T18:11:27.278Z,24.60
2022-09-24T18:13:58.788Z,25.02
2022-09-24T18:16:28.673Z,26.10
2022-09-24T18:18:55.949Z,27.33
2022-09-24T18:21:25.885Z,23.98
2022-09-24T18:23:54.555Z,27.02
2022-09-24T18:26:35.439Z,20.67
2022-09-24T18:29:05.944Z,25.25
2022-09-24T18:31:33.515Z,25.23
2022-09-24T18:34:06.810Z,30.58
2022-09-24T18:36:37.555Z,27.80
2022-09-24T18:39:06.888Z,27.73
2022-09-24T18:41:37.187Z,26.02
2022-09-24T18:44:04.589Z,26.15
2022-09-24T18:46:32.705Z,32.63
2022-09-24T18:49:00.570Z,30.15
2022-09-24T18:51:30.556Z,31.58
2022-09-24T18:53:58.976Z,34.33
2022-09-24T18:56:26.705Z,29.77
2022-09-24T18:59:18.783Z,32.53
2022-09-24T19:01:47.210Z,28.35
2022-09-24T19:04:14.601Z,26.67
2022-09-24T19:06:45.114Z,31.48
2022-09-24T19:09:14.333Z,30.58
2022-09-24T19:11:41.900Z,29.42
2022-09-24T19:14:11.077Z,29.65
2022-09-24T19:16:37.880Z,29.17
2022-09-24T19:19:04.727Z,33.80
2022-09-24T19:21:31.607Z,31.83
2022-09-24T19:23:58.961Z,33.20
2022-09-24T19:26:31.205Z,34.95
2022-09-24T19:28:58.562Z,34.20
2022-09-24T19:31:26.994Z,35.00
2022-09-24T19:33:54.309Z,34.83
2022-09-24T19:36:22.322Z,31.58
2022-09-24T19:38:50.158Z,33.25
2022-09-24T19:41:21.533Z,35.10
2022-09-24T19:43:50.945Z,37.83
2022-09-24T19:46:19.659Z,36.03
2022-09-24T19:48:48.688Z,32.65
2022-09-24T19:51:17.859Z,31.73
2022-09-24T19:53:48.819Z,29.25
2022-09-24T19:56:16.439Z,33.78
2022-09-24T19:58:47.282Z,29.42
2022-09-24T20:01:17.412Z,30.60
2022-09-24T20:03:45.277Z,29.83
2022-09-24T20:06:17.600Z,27.52
2022-09-24T20:08:44.831Z,28.23
2022-09-24T20:11:20.513Z,27.92
2022-09-24T20:13:48.586Z,27.60
2022-09-24T20:16:26.022Z,26.30
2022-09-24T20:18:57.596Z,26.10
2022-09-24T20:21:32.060Z,24.42
2022-09-24T20:23:59.352Z,25.85
2022-09-24T20:26:45.616Z,28.17
2022-09-24T20:29:13.948Z,23.05
2022-09-24T20:31:42.633Z,25.95
2022-09-24T20:34:09.572Z,24.73
2022-09-24T20:36:36.452Z,24.98
2022-09-24T20:39:04.109Z,22.67
2022-09-24T20:41:30.982Z,25.75
2022-09-24T20:43:57.823Z,28.13
2022-09-24T20:46:28.836Z,27.60
2022-09-24T20:49:00.631Z,28.48
2022-09-24T20:51:30.102Z,27.13
2022-09-24T20:53:59.047Z,28.08
2022-09-24T20:56:26.914Z,29.65
2022-09-24T20:58:54.159Z,33.08
2022-09-24T21:01:22.456Z,25.17
2022-09-24T21:03:50.170Z,31.80
2022-09-24T21:06:18.090Z,31.55
2022-09-24T21:08:46.517Z,31.15
2022-09-24T21:11:18.151Z,34.17
2022-09-24T21:13:53.156Z,37.25
2022-09-24T21:16:25.905Z,48.28
2022-09-24T21:18:56.381Z,47.05
2022-09-24T21:21:24.824Z,117.10
2022-09-24T21:23:54.277Z,49.53
2022-09-24T21:26:23.628Z,39.10
2022-09-24T21:28:52.377Z,39.88
2022-09-24T21:31:25.242Z,39.10
2022-09-24T21:33:53.385Z,38.65
2022-09-24T21:36:24.132Z,43.70
2022-09-24T21:38:57.913Z,40.60
2022-09-24T21:41:27.223Z,39.72
2022-09-24T21:43:55.597Z,41.97
2022-09-24T21:46:23.718Z,38.90
2022-09-24T21:48:54.012Z,41.92
2022-09-24T21:51:22.205Z,42.38
2022-09-24T21:53:50.993Z,38.78
2022-09-24T21:56:19.372Z,41.13
2022-09-24T21:58:50.468Z,50.90
2022-09-24T22:01:26.388Z,47.88
2022-09-24T22:03:58.520Z,45.58
2022-09-24T22:06:29.049Z,42.92
2022-09-24T22:09:05.735Z,38.72
2022-09-24T22:11:34.551Z,41.70
2022-09-24T22:14:02.306Z,42.88
2022-09-24T22:16:31.170Z,40.75
2022-09-24T22:18:58.726Z,44.25
2022-09-24T22:21:26.227Z,41.33
2022-09-24T22:23:53.415Z,43.50
2022-09-24T22:26:20.248Z,38.95
2022-09-24T22:28:47.174Z,43.03
2022-09-24T22:31:16.686Z,38.97
2022-09-24T22:34:02.845Z,42.75
2022-09-24T22:36:31.234Z,44.17
2022-09-24T22:38:59.571Z,49.85
2022-09-24T22:41:29.010Z,46.10
2022-09-24T22:43:59.374Z,46.28
2022-09-24T22:46:27.456Z,51.97
2022-09-24T22:48:57.866Z,54.95
2022-09-24T22:51:27.067Z,51.67
2022-09-24T22:53:54.677Z,56.88
2022-09-24T22:56:26.536Z,57.58
2022-09-24T22:58:58.302Z,55.63
2022-09-24T23:01:26.520Z,65.32
2022-09-24T23:03:55.638Z,66.47
2022-09-24T23:06:23.397Z,63.33
2022-09-24T23:08:51.268Z,62.05
2022-09-24T23:11:24.449Z,68.75
2022-09-24T23:14:01.367Z,83.15
2022-09-24T23:16:30.612Z,70.13
2022-09-24T23:18:59.555Z,78.93
2022-09-24T23:21:28.403Z,77.85
2022-09-24T23:23:57.130Z,86.80
2022-09-24T23:26:25.340Z,83.63
2022-09-24T23:28:53.353Z,85.32
2022-09-24T23:31:22.870Z,75.45
2022-09-24T23:33:50.038Z,88.22
2022-09-24T23:36:17.750Z,85.18
2022-09-24T23:38:44.669Z,81.70
2022-09-24T23:41:12.811Z,85.70
2022-09-24T23:43:41.157Z,82.40
2022-09-24T23:46:08.566Z,85.75
2022-09-24T23:48:35.422Z,83.32
2022-09-24T23:51:03.325Z,79.38
2022-09-24T23:53:30.321Z,86.95
2022-09-24T23:55:57.026Z,85.30
2022-09-24T23:58:24.471Z,82.50
